.
WxDataArchive / Data Records for 2014-09-08
2014-09-07 September 2014 2014-09-09

Data Records for Monday, 08 September 2014

Time	Temp	Chill	HIndex	Humid	Dewpt	 Wind 	HiWind	WindDir	Rain 	Barom
-----	----	-----	------	-----	-----	------	------	-------	-----	-----
00:00	61.2	61.2	61.2	78	54.3	0	0	---	0.00	30.149 
00:05	61.2	61.2	61.2	78	54.3	0	0	---	0.00	30.149 
00:10	61.2	61.2	61.2	78	54.3	0	1	135	0.00	30.149 
00:15	61.2	61.2	61.2	78	54.3	0	1	135	0.00	30.149 
00:20	61.0	61.0	61.0	78	54.1	0	0	---	0.00	30.149 
00:25	60.9	60.9	60.9	78	54.0	0	0	---	0.00	30.149 
00:30	60.7	60.7	60.7	78	53.8	0	1	135	0.00	30.150 
00:35	60.4	60.4	60.4	79	53.9	0	0	---	0.00	30.150 
00:40	59.9	59.9	59.9	80	53.7	0	0	---	0.00	30.150 
00:45	59.6	59.6	59.6	80	53.4	0	0	---	0.00	30.150 
00:50	59.3	59.3	59.3	81	53.5	0	0	---	0.00	30.150 
00:55	59.0	59.0	59.0	81	53.2	0	0	---	0.00	30.150 
01:00	58.7	58.7	58.7	82	53.2	0	0	---	0.00	30.151 
01:05	58.6	58.6	58.6	83	53.4	0	0	---	0.00	30.151 
01:10	58.3	58.3	58.3	84	53.5	0	0	---	0.00	30.151 
01:15	58.0	58.0	58.0	84	53.2	0	0	---	0.00	30.150 
01:20	57.8	57.8	57.8	84	53.0	0	0	---	0.00	30.150 
01:25	57.6	57.6	57.6	85	53.1	0	0	---	0.00	30.150 
01:30	57.5	57.5	57.5	85	53.0	0	0	---	0.00	30.150 
01:35	57.2	57.2	57.2	86	53.0	0	0	---	0.00	30.150 
01:40	57.0	57.0	57.0	86	52.9	0	0	---	0.00	30.150 
01:45	56.9	56.9	56.9	87	53.1	0	0	---	0.00	30.152 
01:50	56.7	56.7	56.7	87	52.9	0	0	---	0.00	30.152 
01:55	56.6	56.6	56.6	87	52.8	0	0	---	0.00	30.152 
02:00	56.5	56.5	56.5	88	53.0	0	0	---	0.00	30.148 
02:05	56.5	56.5	56.5	88	53.0	0	0	---	0.00	30.148 
02:10	56.3	56.3	56.3	88	52.8	0	0	---	0.00	30.148 
02:15	56.2	56.2	56.2	89	53.0	0	0	---	0.00	30.141 
02:20	56.0	56.0	56.0	89	52.8	0	0	---	0.00	30.141 
02:25	56.0	56.0	56.0	89	52.8	0	0	---	0.00	30.141 
02:30	55.9	55.9	55.9	89	52.7	0	0	---	0.00	30.141 
02:35	55.9	55.9	55.9	90	53.0	0	0	---	0.00	30.141 
02:40	55.7	55.7	55.7	90	52.8	0	0	---	0.00	30.141 
02:45	55.7	55.7	55.7	90	52.8	0	0	---	0.00	30.141 
02:50	55.6	55.6	55.6	90	52.7	0	0	---	0.00	30.141 
02:55	55.6	55.6	55.6	91	53.0	0	0	---	0.00	30.141 
03:00	55.4	55.4	55.4	91	52.8	0	0	---	0.00	30.141 
03:05	55.4	55.4	55.4	91	52.8	0	0	---	0.00	30.141 
03:10	55.4	55.4	55.4	91	52.8	0	0	---	0.00	30.141 
03:15	55.3	55.3	55.3	91	52.7	0	0	---	0.00	30.139 
03:20	55.3	55.3	55.3	91	52.7	0	0	---	0.00	30.139 
03:25	55.3	55.3	55.3	92	53.0	0	0	---	0.00	30.139 
03:30	55.3	55.3	55.3	92	53.0	0	0	---	0.00	30.141 
03:35	55.3	55.3	55.3	92	53.0	0	0	---	0.00	30.141 
03:40	55.3	55.3	55.3	92	53.0	0	0	---	0.00	30.141 
03:45	55.3	55.3	55.3	92	53.0	0	0	---	0.00	30.140 
03:50	55.1	55.1	55.1	92	52.8	0	0	---	0.00	30.140 
03:55	55.1	55.1	55.1	92	52.8	0	0	---	0.00	30.140 
04:00	55.1	55.1	55.1	92	52.8	0	0	---	0.00	30.139 
04:05	55.1	55.1	55.1	92	52.8	0	0	---	0.00	30.139 
04:10	55.0	55.0	55.0	92	52.7	0	0	---	0.00	30.139 
04:15	55.0	55.0	55.0	92	52.7	0	0	---	0.00	30.137 
04:20	55.0	55.0	55.0	92	52.7	0	0	---	0.00	30.137 
04:25	55.0	55.0	55.0	92	52.7	0	0	---	0.00	30.137 
04:30	54.8	54.8	54.8	92	52.5	0	0	---	0.00	30.136 
04:35	54.8	54.8	54.8	92	52.5	0	0	---	0.00	30.136 
04:40	54.7	54.7	54.7	92	52.4	0	0	---	0.00	30.136 
04:45	54.7	54.7	54.7	92	52.4	0	0	---	0.00	30.133 
04:50	54.7	54.7	54.7	92	52.4	0	0	---	0.00	30.133 
04:55	54.5	54.5	54.5	92	52.2	0	0	---	0.00	30.133 
05:00	54.5	54.5	54.5	92	52.2	0	0	---	0.00	30.132 
05:05	54.4	54.4	54.4	92	52.1	0	0	---	0.00	30.132 
05:10	54.4	54.4	54.4	92	52.1	0	0	---	0.00	30.132 
05:15	54.2	54.2	54.2	92	51.9	0	0	---	0.00	30.132 
05:20	54.2	54.2	54.2	92	51.9	0	0	---	0.00	30.132 
05:25	54.1	54.1	54.1	92	51.8	0	0	---	0.00	30.132 
05:30	53.9	53.9	53.9	92	51.6	0	0	---	0.00	30.127 
05:35	53.9	53.9	53.9	92	51.6	0	0	---	0.00	30.127 
05:40	53.9	53.9	53.9	92	51.6	0	0	---	0.00	30.127 
05:45	53.9	53.9	53.9	92	51.6	0	0	---	0.00	30.131 
05:50	53.9	53.9	53.9	92	51.6	0	0	---	0.00	30.131 
05:55	53.9	53.9	53.9	92	51.6	0	0	---	0.00	30.131 
06:00	53.8	53.8	53.8	92	51.5	0	0	---	0.00	30.132 
06:05	53.8	53.8	53.8	92	51.5	0	0	---	0.00	30.132 
06:10	53.8	53.8	53.8	92	51.5	0	0	---	0.00	30.132 
06:15	53.6	53.6	53.6	92	51.3	0	0	---	0.00	30.139 
06:20	53.6	53.6	53.6	93	51.6	0	0	---	0.00	30.139 
06:25	53.5	53.5	53.5	93	51.5	0	0	---	0.00	30.139 
06:30	53.5	53.5	53.5	92	51.2	0	0	---	0.00	30.139 
06:35	53.3	53.3	53.3	93	51.3	0	0	---	0.00	30.139 
06:40	53.3	53.3	53.3	93	51.3	0	0	---	0.00	30.139 
06:45	53.2	53.2	53.2	93	51.2	0	0	---	0.00	30.141 
06:50	53.2	53.2	53.2	93	51.2	0	0	---	0.00	30.141 
06:55	53.1	53.1	53.1	93	51.1	0	0	---	0.00	30.141 
07:00	52.9	52.9	52.9	93	50.9	0	0	---	0.00	30.141 
07:05	52.9	52.9	52.9	93	50.9	0	0	---	0.00	30.141 
07:10	52.8	52.8	52.8	93	50.8	0	0	---	0.00	30.141 
07:15	52.8	52.8	52.8	93	50.8	0	0	---	0.00	30.143 
07:20	52.6	52.6	52.6	93	50.6	0	0	---	0.00	30.143 
07:25	52.6	52.6	52.6	93	50.6	0	0	---	0.00	30.143 
07:30	52.6	52.6	52.6	93	50.6	0	0	---	0.00	30.144 
07:35	52.8	52.8	52.8	93	50.8	0	0	---	0.00	30.144 
07:40	52.9	52.9	52.9	93	50.9	0	0	---	0.00	30.144 
07:45	53.2	53.2	53.2	94	51.5	0	1	135	0.00	30.146 
07:50	53.5	53.5	53.5	93	51.5	0	2	135	0.00	30.146 
07:55	53.8	53.8	53.8	93	51.8	0	1	135	0.00	30.146 
08:00	53.9	53.9	53.9	92	51.6	0	1	135	0.00	30.148 
08:05	54.2	54.2	54.2	92	51.9	0	1	135	0.00	30.148 
08:10	54.5	54.5	54.5	91	51.9	0	2	135	0.00	30.148 
08:15	54.7	54.7	54.7	89	51.5	1	3	135	0.00	30.156 
08:20	55.1	55.1	55.1	89	51.9	0	2	135	0.00	30.156 
08:25	55.4	55.4	55.4	88	51.9	0	3	135	0.00	30.156 
08:30	55.7	55.7	55.7	87	51.9	0	2	135	0.00	30.158 
08:35	56.0	56.0	56.0	86	51.9	0	2	135	0.00	30.158 
08:40	56.3	56.3	56.3	85	51.8	0	2	135	0.00	30.158 
08:45	56.7	56.7	56.7	84	51.9	1	2	135	0.00	30.160 
08:50	57.0	57.0	57.0	83	51.9	1	4	112	0.00	30.160 
08:55	57.3	57.3	57.3	82	51.9	0	3	112	0.00	30.160 
09:00	57.8	57.8	57.8	82	52.3	0	1	112	0.00	30.157 
09:05	58.1	58.1	58.1	82	52.6	0	2	112	0.00	30.157 
09:10	58.4	58.4	58.4	82	52.9	0	1	112	0.00	30.157 
09:15	58.7	58.7	58.7	81	52.9	0	2	112	0.00	30.158 
09:20	59.0	59.0	59.0	79	52.5	1	3	112	0.00	30.158 
09:25	59.3	59.3	59.3	80	53.1	0	3	112	0.00	30.158 
09:30	59.6	59.6	59.6	79	53.1	0	2	112	0.00	30.152 
09:35	59.9	59.9	59.9	78	53.0	1	3	112	0.00	30.152 
09:40	60.2	60.2	60.2	79	53.7	0	2	112	0.00	30.152 
09:45	60.5	60.5	60.5	78	53.6	0	1	112	0.00	30.153 
09:50	60.9	60.9	60.9	78	54.0	0	2	112	0.00	30.153 
09:55	61.2	61.2	61.2	77	53.9	0	3	112	0.00	30.153 
10:00	61.3	61.3	61.3	77	54.0	1	3	112	0.00	30.146 
10:05	61.8	61.8	61.8	78	54.9	0	2	112	0.00	30.146 
10:10	62.3	62.3	62.3	77	55.0	1	3	112	0.00	30.146 
10:15	63.1	63.1	63.1	75	55.0	0	3	112	0.00	30.144 
10:20	64.2	64.2	64.2	73	55.4	0	1	112	0.00	30.144 
10:25	65.3	65.3	65.3	72	56.0	0	4	112	0.00	30.144 
10:30	66.0	66.0	66.0	69	55.5	1	4	112	0.00	30.142 
10:35	66.6	66.6	66.6	69	56.1	1	2	112	0.00	30.142 
10:40	67.4	67.4	67.4	68	56.5	0	3	112	0.00	30.142 
10:45	68.3	68.3	68.3	65	56.1	1	3	112	0.00	30.138 
10:50	68.9	68.9	68.9	65	56.6	1	3	112	0.00	30.138 
10:55	69.1	69.1	69.1	65	56.8	1	3	112	0.00	30.138 
11:00	69.4	69.4	69.4	65	57.1	1	4	90	0.00	30.132 
11:05	69.9	69.9	69.9	63	56.7	1	3	90	0.00	30.132 
11:10	70.4	70.4	70.4	62	56.7	1	4	90	0.00	30.132 
11:15	70.6	70.6	70.6	61	56.5	1	4	90	0.00	30.123 
11:20	71.1	71.1	71.1	61	57.0	1	3	90	0.00	30.123 
11:25	71.6	71.6	71.6	60	57.0	1	3	90	0.00	30.123 
11:30	72.3	72.3	72.3	59	57.2	0	2	90	0.00	30.118 
11:35	72.5	72.5	72.5	58	56.9	1	5	90	0.00	30.118 
11:40	72.8	72.8	72.8	58	57.1	1	3	90	0.00	30.118 
11:45	73.2	73.2	73.2	58	57.5	0	2	90	0.00	30.115 
11:50	73.7	73.7	73.7	55	56.5	0	3	90	0.00	30.115 
11:55	73.9	73.9	73.9	56	57.2	1	6	90	0.00	30.115 
12:00	74.2	74.2	74.2	54	56.5	1	3	112	0.00	30.114 
12:05	74.0	74.0	74.0	54	56.3	2	6	90	0.00	30.114 
12:10	73.9	73.9	73.9	53	55.7	2	5	90	0.00	30.114 
12:15	73.9	73.9	73.9	54	56.2	2	5	90	0.00	30.106 
12:20	73.9	73.9	73.9	54	56.2	1	4	90	0.00	30.106 
12:25	74.7	74.7	74.7	52	55.9	1	5	112	0.00	30.106 
12:30	74.6	74.6	74.6	53	56.3	1	4	45	0.00	30.103 
12:35	74.0	74.0	74.0	52	55.2	2	4	68	0.00	30.103 
12:40	74.2	74.2	74.2	52	55.4	2	5	90	0.00	30.103 
12:45	74.9	74.9	74.9	50	55.0	1	6	90	0.00	30.099 
12:50	75.3	75.3	77.7	49	54.8	3	6	90	0.00	30.099 
12:55	75.3	75.3	77.7	48	54.2	2	5	68	0.00	30.099 
13:00	75.6	75.6	77.9	48	54.5	1	5	135	0.00	30.089 
13:05	76.0	76.0	78.0	48	54.9	1	4	68	0.00	30.089 
13:10	76.3	76.3	78.2	48	55.1	1	3	68	0.00	30.089 
13:15	76.1	76.1	78.1	48	55.0	2	7	90	0.00	30.094 
13:20	76.0	76.0	78.0	48	54.9	2	7	90	0.00	30.094 
13:25	76.0	76.0	78.1	49	55.4	1	4	90	0.00	30.094 
13:30	76.3	76.3	78.2	47	54.6	1	3	90	0.00	30.090 
13:35	76.8	76.8	78.4	46	54.4	1	6	90	0.00	30.090 
13:40	76.8	76.8	78.3	44	53.2	1	5	90	0.00	30.090 
13:45	76.8	76.8	78.3	45	53.8	2	4	90	0.00	30.083 
13:50	76.7	76.7	78.3	46	54.3	1	4	90	0.00	30.083 
13:55	77.0	77.0	78.5	46	54.6	1	5	90	0.00	30.083 
14:00	76.8	76.8	78.3	45	53.8	3	6	90	0.00	30.082 
14:05	76.7	76.7	78.3	45	53.7	2	7	90	0.00	30.082 
14:10	76.1	76.1	78.0	45	53.2	2	5	90	0.00	30.082 
14:15	76.3	76.3	78.1	46	54.0	1	6	90	0.00	30.080 
14:20	76.5	76.5	78.2	46	54.2	1	3	112	0.00	30.080 
14:25	76.7	76.7	78.4	47	54.9	2	5	68	0.00	30.080 
14:30	76.7	76.7	78.2	43	52.5	1	4	135	0.00	30.075 
14:35	76.7	76.7	78.4	47	54.9	1	5	112	0.00	30.075 
14:40	76.7	76.7	78.4	47	54.9	1	3	90	0.00	30.075 
14:45	76.8	76.8	78.4	47	55.0	2	4	90	0.00	30.073 
14:50	76.8	76.8	78.4	46	54.4	2	3	90	0.00	30.073 
14:55	76.8	76.8	78.4	46	54.4	1	4	90	0.00	30.073 
15:00	77.0	77.0	78.5	47	55.2	1	5	90	0.00	30.069 
15:05	77.2	77.2	78.4	42	52.3	1	4	90	0.00	30.069 
15:10	77.6	77.6	78.7	43	53.3	1	3	112	0.00	30.069 
15:15	77.9	77.9	78.7	41	52.3	0	3	112	0.00	30.068 
15:20	78.1	78.1	78.9	43	53.8	1	5	68	0.00	30.068 
15:25	78.1	78.1	78.9	42	53.1	2	5	90	0.00	30.068 
15:30	77.9	77.9	78.7	41	52.3	2	5	90	0.00	30.059 
15:35	77.6	77.6	78.6	42	52.7	1	6	68	0.00	30.059 
15:40	77.7	77.7	78.7	42	52.8	0	2	68	0.00	30.059 
15:45	77.7	77.7	78.7	42	52.8	0	1	68	0.00	30.056 
15:50	77.9	77.9	78.9	45	54.8	1	4	68	0.00	30.056 
15:55	78.1	78.1	78.9	42	53.1	0	3	68	0.00	30.056 
16:00	78.5	78.5	78.9	39	51.5	1	3	68	0.00	30.046 
16:05	78.3	78.3	78.9	41	52.6	0	2	68	0.00	30.046 
16:10	78.1	78.1	78.9	42	53.1	1	3	112	0.00	30.046 
16:15	77.7	77.7	78.7	43	53.4	2	5	68	0.00	30.043 
16:20	77.4	77.4	78.5	41	51.8	1	4	68	0.00	30.043 
16:25	77.4	77.4	78.4	40	51.2	1	4	90	0.00	30.043 
16:30	77.4	77.4	78.3	38	49.8	1	3	248	0.00	30.040 
16:35	77.4	77.4	78.3	38	49.8	0	2	248	0.00	30.040 
16:40	77.4	77.4	78.4	39	50.5	1	4	158	0.00	30.040 
16:45	77.4	77.4	78.5	42	52.5	1	2	112	0.00	30.026 
16:50	77.4	77.4	78.4	40	51.2	1	3	112	0.00	30.026 
16:55	77.4	77.4	78.4	40	51.2	1	6	135	0.00	30.026 
17:00	77.2	77.2	78.3	40	51.0	1	4	112	0.00	30.026 
17:05	77.0	77.0	78.3	42	52.1	1	3	112	0.00	30.026 
17:10	77.0	77.0	78.3	41	51.5	0	4	158	0.00	30.026 
17:15	77.0	77.0	78.2	40	50.8	0	2	158	0.00	30.027 
17:20	77.0	77.0	78.2	39	50.1	0	2	112	0.00	30.027 
17:25	77.2	77.2	78.3	39	50.3	0	1	112	0.00	30.027 
17:30	77.2	77.2	78.3	39	50.3	1	5	90	0.00	30.028 
17:35	77.0	77.0	78.2	39	50.1	0	3	90	0.00	30.028 
17:40	77.0	77.0	78.3	41	51.5	0	1	90	0.00	30.028 
17:45	77.0	77.0	78.2	40	50.8	0	2	90	0.00	30.026 
17:50	76.8	76.8	78.1	39	49.9	0	2	90	0.00	30.026 
17:55	77.0	77.0	78.2	40	50.8	0	3	90	0.00	30.026 
18:00	77.0	77.0	78.2	39	50.1	0	2	90	0.00	30.024 
18:05	76.8	76.8	78.1	39	49.9	0	1	90	0.00	30.024 
18:10	76.7	76.7	78.1	41	51.2	0	1	90	0.00	30.024 
18:15	76.3	76.3	78.0	41	50.8	0	3	90	0.00	30.025 
18:20	76.1	76.1	77.9	41	50.7	0	2	90	0.00	30.025 
18:25	76.0	76.0	77.9	41	50.6	0	1	90	0.00	30.025 
18:30	76.0	76.0	77.9	42	51.2	0	1	90	0.00	30.023 
18:35	75.8	75.8	77.8	42	51.1	1	2	90	0.00	30.023 
18:40	75.6	75.6	77.7	42	50.9	1	2	90	0.00	30.023 
18:45	75.4	75.4	77.7	43	51.3	0	1	90	0.00	30.019 
18:50	75.4	75.4	77.7	43	51.3	0	1	90	0.00	30.019 
18:55	75.3	75.3	77.7	44	51.9	0	1	90	0.00	30.019 
19:00	75.3	75.3	77.7	44	51.9	0	3	90	0.00	30.018 
19:05	75.1	75.1	77.6	44	51.7	0	1	90	0.00	30.018 
19:10	75.1	75.1	77.6	44	51.7	0	0	---	0.00	30.018 
19:15	74.9	74.9	74.9	45	52.1	0	0	---	0.00	30.017 
19:20	74.6	74.6	74.6	44	51.2	0	1	90	0.00	30.017 
19:25	74.6	74.6	74.6	46	52.4	0	0	---	0.00	30.017 
19:30	74.2	74.2	74.2	47	52.7	0	0	---	0.00	30.014 
19:35	74.0	74.0	74.0	47	52.5	0	0	---	0.00	30.014 
19:40	73.7	73.7	73.7	49	53.3	0	0	---	0.00	30.014 
19:45	73.2	73.2	73.2	50	53.4	0	0	---	0.00	30.013 
19:50	72.8	72.8	72.8	50	53.1	0	0	---	0.00	30.013 
19:55	72.3	72.3	72.3	52	53.7	0	0	---	0.00	30.013 
20:00	71.8	71.8	71.8	53	53.7	0	0	---	0.00	30.010 
20:05	71.3	71.3	71.3	53	53.3	0	0	---	0.00	30.010 
20:10	70.6	70.6	70.6	54	53.1	0	0	---	0.00	30.010 
20:15	70.3	70.3	70.3	56	53.8	0	0	---	0.00	30.004 
20:20	69.8	69.8	69.8	58	54.3	0	0	---	0.00	30.004 
20:25	69.3	69.3	69.3	59	54.3	0	0	---	0.00	30.004 
20:30	68.8	68.8	68.8	61	54.8	0	0	---	0.00	30.011 
20:35	68.3	68.3	68.3	61	54.3	0	0	---	0.00	30.011 
20:40	67.9	67.9	67.9	62	54.4	0	0	---	0.00	30.011 
20:45	67.4	67.4	67.4	62	53.9	0	0	---	0.00	30.014 
20:50	67.1	67.1	67.1	63	54.1	0	0	---	0.00	30.014 
20:55	66.8	66.8	66.8	65	54.6	0	0	---	0.00	30.014 
21:00	66.4	66.4	66.4	67	55.1	0	0	---	0.00	30.015 
21:05	66.1	66.1	66.1	67	54.8	0	0	---	0.00	30.015 
21:10	65.8	65.8	65.8	68	54.9	0	0	---	0.00	30.015 
21:15	65.5	65.5	65.5	69	55.1	0	0	---	0.00	30.015 
21:20	65.2	65.2	65.2	71	55.6	0	0	---	0.00	30.015 
21:25	64.8	64.8	64.8	72	55.6	0	0	---	0.00	30.015 
21:30	64.5	64.5	64.5	72	55.3	0	0	---	0.00	30.016 
21:35	64.2	64.2	64.2	73	55.4	0	0	---	0.00	30.016 
21:40	64.0	64.0	64.0	74	55.5	0	0	---	0.00	30.016 
21:45	63.9	63.9	63.9	75	55.8	0	0	---	0.00	30.020 
21:50	63.7	63.7	63.7	76	56.0	0	0	---	0.00	30.020 
21:55	63.4	63.4	63.4	76	55.7	0	0	---	0.00	30.020 
22:00	63.2	63.2	63.2	77	55.9	0	0	---	0.00	30.023 
22:05	63.1	63.1	63.1	77	55.8	0	0	---	0.00	30.023 
22:10	62.9	62.9	62.9	78	55.9	0	1	90	0.00	30.023 
22:15	62.7	62.7	62.7	79	56.1	0	0	---	0.00	30.023 
22:20	62.6	62.6	62.6	79	56.0	0	0	---	0.00	30.023 
22:25	62.4	62.4	62.4	80	56.1	0	0	---	0.00	30.023 
22:30	62.4	62.4	62.4	79	55.8	0	1	90	0.00	30.022 
22:35	62.7	62.7	62.7	77	55.4	0	1	90	0.00	30.022 
22:40	62.9	62.9	62.9	77	55.6	0	0	---	0.00	30.022 
22:45	63.1	63.1	63.1	77	55.8	0	0	---	0.00	30.024 
22:50	63.1	63.1	63.1	77	55.8	0	0	---	0.00	30.024 
22:55	63.1	63.1	63.1	77	55.8	0	0	---	0.00	30.024 
23:00	63.1	63.1	63.1	77	55.8	0	0	---	0.00	30.023 
23:05	63.1	63.1	63.1	78	56.1	0	0	---	0.00	30.023 
23:10	63.1	63.1	63.1	79	56.5	0	0	---	0.00	30.023 
23:15	62.9	62.9	62.9	79	56.3	0	0	---	0.00	30.013 
23:20	62.9	62.9	62.9	80	56.6	0	0	---	0.00	30.013 
23:25	62.7	62.7	62.7	80	56.4	0	0	---	0.00	30.013 
23:30	62.6	62.6	62.6	80	56.3	0	0	---	0.00	30.010 
23:35	62.4	62.4	62.4	81	56.5	0	0	---	0.00	30.010 
23:40	62.3	62.3	62.3	81	56.4	0	0	---	0.00	30.010 
23:45	62.1	62.1	62.1	82	56.5	0	0	---	0.00	30.014 
23:50	62.0	62.0	62.0	82	56.4	0	0	---	0.00	30.014 
23:55	61.8	61.8	61.8	83	56.6	0	0	---	0.00	30.014 

CoCoRaHS
IN-AL-39
A2 Web Hosting
Creative Commons License
GoDaddy
search engine by freefind advanced

loaded 2018-11-20 14:31:57 • last modified 2010-11-18 10:43:29
Privacy PolicyDisclaimer
• wx.awcolley.com is powered by PmWiki v.2002016 •
• all content (unless otherwise noted) © 2018 A W Colley